Time;durP1;ratioP1;P1;durP2;ratioP2;P2;SDS_P1;SDS_P2;PMS_P1;PMS_P2;Temp;Humidity;BMP_temperature;BMP_pressure;BME280_temperature;BME280_humidity;BME280_pressure;Samples;Min_cycle;Max_cycle;Signal;HPM_P1;HPM_P2
2021/05/30 00:02:24;;;;;;;13.45;8.32;;;12.60;99.90;;;;;;5087929;28;20044;-64
2021/05/30 00:04:50;;;;;;;14.18;8.75;;;12.70;99.90;;;;;;5088072;28;20115;-63
2021/05/30 00:07:22;;;;;;;15.48;9.40;;;12.60;99.90;;;;;;5090247;28;20123;-65
2021/05/30 00:09:47;;;;;;;14.27;8.80;;;12.50;99.90;;;;;;5086540;28;20045;-64
2021/05/30 00:12:13;;;;;;;17.42;9.98;;;12.50;99.90;;;;;;5084036;28;20432;-64
2021/05/30 00:14:39;;;;;;;12.65;8.80;;;12.50;99.90;;;;;;5070058;28;20056;-64
2021/05/30 00:17:05;;;;;;;12.43;8.50;;;12.40;99.90;;;;;;5086998;28;20130;-64
2021/05/30 00:19:31;;;;;;;19.27;10.15;;;12.40;99.90;;;;;;5087585;28;20071;-65
2021/05/30 00:21:57;;;;;;;16.58;9.05;;;12.40;99.90;;;;;;5087667;28;20045;-64
2021/05/30 00:24:23;;;;;;;20.00;10.30;;;12.30;99.90;;;;;;5065562;28;20048;-64
2021/05/30 00:26:48;;;;;;;15.00;10.18;;;12.30;99.90;;;;;;5087004;28;20076;-64
2021/05/30 00:29:14;;;;;;;16.13;9.48;;;12.20;99.90;;;;;;5069644;28;20071;-65
2021/05/30 00:31:40;;;;;;;12.55;9.57;;;12.10;99.90;;;;;;5087454;28;20044;-65
2021/05/30 00:34:06;;;;;;;16.88;10.20;;;12.00;99.90;;;;;;5088421;28;20045;-64
2021/05/30 00:36:32;;;;;;;14.88;9.13;;;11.80;99.90;;;;;;5087741;28;20040;-64
2021/05/30 00:38:57;;;;;;;15.85;9.80;;;11.80;99.90;;;;;;5087657;28;20036;-65
2021/05/30 00:41:23;;;;;;;14.05;8.52;;;11.90;99.90;;;;;;5087389;28;20589;-64
2021/05/30 00:43:51;;;;;;;15.45;10.50;;;11.90;99.90;;;;;;5087284;28;20049;-64
2021/05/30 00:46:18;;;;;;;15.82;10.77;;;11.90;99.90;;;;;;5087050;28;20075;-64
2021/05/30 00:48:45;;;;;;;13.55;10.15;;;11.90;99.90;;;;;;5074240;28;20039;-64
2021/05/30 00:51:11;;;;;;;14.27;8.85;;;11.70;99.90;;;;;;5070310;28;20052;-65
2021/05/30 00:53:38;;;;;;;13.85;9.57;;;11.70;99.90;;;;;;5079090;28;20041;-64
2021/05/30 00:56:09;;;;;;;17.80;10.23;;;11.60;99.90;;;;;;5086697;28;20074;-65
2021/05/30 00:58:37;;;;;;;14.43;10.00;;;11.50;99.90;;;;;;5086935;28;20047;-65
2021/05/30 01:01:03;;;;;;;13.50;9.50;;;11.40;99.90;;;;;;5087098;28;20235;-64
2021/05/30 01:03:32;;;;;;;14.82;9.38;;;11.30;99.90;;;;;;5086722;28;20045;-64
2021/05/30 01:05:58;;;;;;;18.38;9.70;;;11.20;99.90;;;;;;5087213;28;20108;-64
2021/05/30 01:08:27;;;;;;;12.68;9.00;;;11.10;99.90;;;;;;5091389;28;20082;-64
2021/05/30 01:10:55;;;;;;;15.43;10.32;;;11.10;99.90;;;;;;5086713;28;20044;-64
2021/05/30 01:13:23;;;;;;;20.33;10.02;;;11.00;99.90;;;;;;5073356;28;20037;-64
2021/05/30 01:15:49;;;;;;;16.25;10.65;;;10.90;99.90;;;;;;5086461;28;20135;-64
2021/05/30 01:18:21;;;;;;;13.73;10.15;;;10.90;99.90;;;;;;5079602;28;20056;-64
2021/05/30 01:20:47;;;;;;;17.15;10.80;;;10.80;99.90;;;;;;5086437;28;20079;-64
2021/05/30 01:23:15;;;;;;;15.70;10.52;;;10.60;99.90;;;;;;5083096;28;20051;-64
2021/05/30 01:25:42;;;;;;;14.93;10.20;;;10.60;99.90;;;;;;5080292;28;20051;-64
2021/05/30 01:28:08;;;;;;;15.13;9.95;;;10.50;99.90;;;;;;5085786;28;20045;-64
2021/05/30 01:30:35;;;;;;;17.05;10.80;;;10.50;99.90;;;;;;5085488;28;20480;-63
2021/05/30 01:33:02;;;;;;;14.90;10.68;;;10.50;99.90;;;;;;5087253;28;20075;-63
2021/05/30 01:35:28;;;;;;;19.10;9.82;;;10.50;99.90;;;;;;5080566;28;20045;-63
2021/05/30 01:37:54;;;;;;;13.18;9.52;;;10.50;99.90;;;;;;5062488;28;20054;-63
2021/05/30 01:40:21;;;;;;;14.20;9.77;;;10.50;99.90;;;;;;5085882;28;20062;-63
2021/05/30 01:42:48;;;;;;;17.90;9.70;;;10.40;99.90;;;;;;5086479;28;20048;-63
2021/05/30 01:45:16;;;;;;;14.48;9.65;;;10.40;99.90;;;;;;5087000;28;20416;-64
2021/05/30 01:47:43;;;;;;;17.23;10.55;;;10.40;99.90;;;;;;5086019;28;20036;-64
2021/05/30 01:50:21;;;;;;;14.20;9.50;;;10.30;99.90;;;;;;5072250;28;20123;-63
2021/05/30 01:52:48;;;;;;;15.18;9.43;;;10.20;99.90;;;;;;5079301;28;20049;-64
2021/05/30 01:55:23;;;;;;;13.95;8.43;;;10.10;99.90;;;;;;5085790;28;20543;-64
2021/05/30 01:57:51;;;;;;;14.45;8.23;;;10.10;99.90;;;;;;5085404;28;20101;-64
2021/05/30 02:00:18;;;;;;;17.15;9.48;;;10.00;99.90;;;;;;5085678;28;20064;-64
2021/05/30 02:02:51;;;;;;;13.60;9.73;;;10.00;99.90;;;;;;5086485;28;20064;-64
2021/05/30 02:05:18;;;;;;;17.05;10.48;;;10.00;99.90;;;;;;5077895;28;20508;-64
2021/05/30 02:07:46;;;;;;;15.60;9.50;;;10.00;99.90;;;;;;5085944;28;20066;-64
2021/05/30 02:10:13;;;;;;;14.98;9.57;;;9.90;99.90;;;;;;5067139;28;20044;-64
2021/05/30 02:12:40;;;;;;;12.15;9.18;;;9.90;99.90;;;;;;5067207;28;20044;-64
2021/05/30 02:15:08;;;;;;;16.63;9.45;;;9.80;99.90;;;;;;5068314;28;20060;-65
2021/05/30 02:17:35;;;;;;;14.75;10.18;;;9.70;99.90;;;;;;5080758;28;20052;-63
2021/05/30 02:20:03;;;;;;;15.43;9.45;;;9.70;99.90;;;;;;5085487;28;20044;-63
2021/05/30 02:22:31;;;;;;;14.35;9.27;;;9.60;99.90;;;;;;5085053;28;20108;-63
2021/05/30 02:24:57;;;;;;;15.07;9.25;;;9.60;99.90;;;;;;5076556;28;20055;-64
2021/05/30 02:27:23;;;;;;;12.20;9.43;;;9.50;99.90;;;;;;5084982;28;20108;-64
2021/05/30 02:29:49;;;;;;;14.27;8.98;;;9.50;99.90;;;;;;5084794;28;20063;-63
2021/05/30 02:32:15;;;;;;;15.52;9.88;;;9.40;99.90;;;;;;5084908;28;20048;-64
2021/05/30 02:34:42;;;;;;;16.35;9.90;;;9.30;99.90;;;;;;5085003;28;20045;-64
2021/05/30 02:37:13;;;;;;;14.77;9.63;;;9.20;99.90;;;;;;5084690;28;20100;-64
2021/05/30 02:39:39;;;;;;;12.05;9.05;;;9.10;99.90;;;;;;5085059;28;20044;-64
2021/05/30 02:42:06;;;;;;;13.30;9.52;;;9.00;99.90;;;;;;5084888;28;20095;-64
2021/05/30 02:44:32;;;;;;;15.13;9.88;;;8.90;99.90;;;;;;5084663;28;20051;-65
2021/05/30 02:46:59;;;;;;;12.90;9.43;;;8.90;99.90;;;;;;5085178;28;20480;-65
2021/05/30 02:49:25;;;;;;;11.05;8.73;;;8.90;99.90;;;;;;5084686;28;20049;-64
2021/05/30 02:51:52;;;;;;;10.75;8.68;;;8.90;99.90;;;;;;5071781;28;20049;-64
2021/05/30 02:54:18;;;;;;;17.95;9.82;;;8.80;99.90;;;;;;5067401;28;20123;-65
2021/05/30 02:56:44;;;;;;;13.50;9.00;;;8.80;99.90;;;;;;5084765;28;20044;-64
2021/05/30 02:59:10;;;;;;;13.40;9.45;;;8.80;99.90;;;;;;5084542;28;20055;-65
2021/05/30 03:01:36;;;;;;;17.27;9.43;;;8.80;99.90;;;;;;5071397;28;20045;-64
2021/05/30 03:04:02;;;;;;;17.60;10.10;;;8.80;99.90;;;;;;5085861;28;20056;-64
2021/05/30 03:06:28;;;;;;;15.60;10.15;;;8.70;99.90;;;;;;5085566;28;20044;-64
2021/05/30 03:08:55;;;;;;;11.05;7.55;;;8.70;99.90;;;;;;5093791;28;20563;-64
2021/05/30 03:11:21;;;;;;;8.50;6.35;;;8.70;99.90;;;;;;5084709;28;20047;-64
2021/05/30 03:13:50;;;;;;;9.55;5.82;;;8.70;99.90;;;;;;5084339;28;20049;-65
2021/05/30 03:16:16;;;;;;;8.93;6.60;;;8.60;99.90;;;;;;5044529;28;20049;-64
2021/05/30 03:18:42;;;;;;;7.75;6.10;;;8.50;99.90;;;;;;5040673;28;20068;-64
2021/05/30 03:21:08;;;;;;;10.63;7.32;;;8.50;99.90;;;;;;5044906;28;20067;-64
2021/05/30 03:23:34;;;;;;;8.15;7.20;;;8.50;99.90;;;;;;5045280;28;20037;-64
2021/05/30 03:26:00;;;;;;;8.43;7.18;;;8.50;99.90;;;;;;5044782;28;20049;-64
2021/05/30 03:28:26;;;;;;;12.68;8.68;;;8.50;99.90;;;;;;5044150;28;20128;-64
2021/05/30 03:30:52;;;;;;;8.02;6.45;;;8.50;99.90;;;;;;5047446;28;20099;-64
2021/05/30 03:33:18;;;;;;;9.60;6.78;;;8.50;99.90;;;;;;5048486;28;20046;-64
2021/05/30 03:35:45;;;;;;;10.15;7.15;;;8.50;99.90;;;;;;5048362;28;20414;-64
2021/05/30 03:38:13;;;;;;;12.70;8.07;;;8.30;99.90;;;;;;5048100;28;20045;-65
2021/05/30 03:40:46;;;;;;;10.70;8.10;;;8.30;99.90;;;;;;5049276;28;20037;-64
2021/05/30 03:43:12;;;;;;;9.35;7.18;;;8.30;99.90;;;;;;5049026;28;20041;-64
2021/05/30 03:45:39;;;;;;;14.65;8.75;;;8.30;99.90;;;;;;5048238;28;20049;-64
2021/05/30 03:48:05;;;;;;;10.68;8.90;;;8.30;99.90;;;;;;5048370;28;20050;-64
2021/05/30 03:50:32;;;;;;;13.38;9.35;;;8.20;99.90;;;;;;5048802;28;20065;-64
2021/05/30 03:52:58;;;;;;;15.38;10.25;;;8.30;99.90;;;;;;5045788;28;20052;-64
2021/05/30 03:55:24;;;;;;;15.15;10.05;;;8.40;99.90;;;;;;5048104;28;20042;-64
2021/05/30 03:57:50;;;;;;;14.35;10.50;;;8.40;99.90;;;;;;5034778;28;20049;-64
2021/05/30 04:00:20;;;;;;;14.45;10.27;;;8.30;99.90;;;;;;5047800;28;20049;-65
2021/05/30 04:02:46;;;;;;;16.27;10.27;;;8.30;99.90;;;;;;5048248;28;20278;-64
2021/05/30 04:05:14;;;;;;;15.70;11.00;;;8.30;99.90;;;;;;5049126;28;20075;-65
2021/05/30 04:07:40;;;;;;;14.65;10.25;;;8.20;99.90;;;;;;5049690;28;20041;-64
2021/05/30 04:10:09;;;;;;;20.30;11.57;;;8.30;99.90;;;;;;5047886;28;20049;-65
2021/05/30 04:12:42;;;;;;;14.88;10.52;;;8.40;99.90;;;;;;5048014;28;20045;-64
2021/05/30 04:15:09;;;;;;;17.17;11.45;;;8.40;99.90;;;;;;5069696;28;20063;-64
2021/05/30 04:17:38;;;;;;;18.10;11.23;;;8.50;99.90;;;;;;5086277;28;20051;-64
2021/05/30 04:20:05;;;;;;;19.75;11.25;;;8.60;99.90;;;;;;5087722;28;20049;-64
2021/05/30 04:22:31;;;;;;;22.27;11.27;;;8.60;99.90;;;;;;5081893;28;20045;-64
2021/05/30 04:24:57;;;;;;;16.70;10.70;;;8.70;99.90;;;;;;5085374;28;20391;-64
2021/05/30 04:27:22;;;;;;;15.65;9.40;;;8.70;99.90;;;;;;5074745;28;20045;-64
2021/05/30 04:29:48;;;;;;;14.60;10.15;;;8.70;99.90;;;;;;5085930;28;20045;-64
2021/05/30 04:32:14;;;;;;;15.98;9.75;;;8.80;99.90;;;;;;5087351;28;20124;-64
2021/05/30 04:34:39;;;;;;;15.68;10.40;;;8.70;99.90;;;;;;5074454;28;20505;-64
2021/05/30 04:37:05;;;;;;;18.83;12.27;;;8.80;99.90;;;;;;5070282;28;20131;-64
2021/05/30 04:39:32;;;;;;;14.05;10.27;;;8.90;99.90;;;;;;5074272;28;20485;-64
2021/05/30 04:41:59;;;;;;;14.85;10.07;;;8.90;99.90;;;;;;5086822;28;20047;-64
2021/05/30 04:44:25;;;;;;;20.10;11.43;;;9.00;99.90;;;;;;5084474;28;20055;-64
2021/05/30 04:46:51;;;;;;;21.77;11.70;;;9.10;99.90;;;;;;5059026;28;20053;-64
2021/05/30 04:49:17;;;;;;;22.90;12.18;;;9.10;99.90;;;;;;5083949;28;20047;-64
2021/05/30 04:51:43;;;;;;;20.58;12.30;;;9.20;99.90;;;;;;5087192;28;20040;-64
2021/05/30 04:54:09;;;;;;;16.63;12.10;;;9.20;99.90;;;;;;5085666;28;20037;-64
2021/05/30 04:56:35;;;;;;;18.98;11.95;;;9.30;99.90;;;;;;5077226;28;20068;-64
2021/05/30 04:59:01;;;;;;;26.80;13.00;;;9.40;99.90;;;;;;5084138;28;20048;-64
2021/05/30 05:01:27;;;;;;;18.08;11.93;;;9.50;99.90;;;;;;5068806;28;20048;-65
2021/05/30 05:03:53;;;;;;;20.95;11.88;;;9.50;99.90;;;;;;5084751;28;20098;-64
2021/05/30 05:06:19;;;;;;;16.42;10.52;;;9.60;99.90;;;;;;5077299;28;20459;-65
2021/05/30 05:08:46;;;;;;;17.33;11.82;;;9.60;99.90;;;;;;5099340;28;20066;-65
2021/05/30 05:11:12;;;;;;;19.50;12.13;;;9.70;99.90;;;;;;5086698;28;20519;-64
2021/05/30 05:13:38;;;;;;;17.50;11.85;;;9.80;99.90;;;;;;5086669;28;20044;-65
2021/05/30 05:16:04;;;;;;;18.90;11.40;;;9.90;99.90;;;;;;5086586;28;20067;-65
2021/05/30 05:18:31;;;;;;;20.40;12.30;;;10.00;99.90;;;;;;5074063;28;20041;-65
2021/05/30 05:20:57;;;;;;;18.85;12.23;;;10.10;99.90;;;;;;5079162;28;20071;-64
2021/05/30 05:23:25;;;;;;;18.00;11.85;;;10.20;99.90;;;;;;5077821;28;20044;-65
2021/05/30 05:25:52;;;;;;;18.77;12.07;;;10.30;99.90;;;;;;5086194;28;20048;-64
2021/05/30 05:28:17;;;;;;;21.20;11.65;;;10.30;99.90;;;;;;5086574;28;20045;-65
2021/05/30 05:30:44;;;;;;;20.38;12.88;;;10.30;99.90;;;;;;5086156;28;20043;-64
2021/05/30 05:33:09;;;;;;;20.92;13.35;;;10.40;99.90;;;;;;5072650;28;20049;-64
2021/05/30 05:35:35;;;;;;;22.48;13.23;;;10.50;99.90;;;;;;5086768;28;20052;-64
2021/05/30 05:38:02;;;;;;;23.52;13.50;;;10.50;99.90;;;;;;5068524;28;20076;-64
2021/05/30 05:40:29;;;;;;;21.10;13.75;;;10.60;99.90;;;;;;5085816;28;20048;-64
2021/05/30 05:42:55;;;;;;;24.25;13.80;;;10.70;99.90;;;;;;5085563;28;20043;-64
2021/05/30 05:45:23;;;;;;;27.33;14.77;;;10.80;99.90;;;;;;5086044;28;20104;-64
2021/05/30 05:47:58;;;;;;;21.95;14.80;;;11.00;99.90;;;;;;5085948;28;20048;-65
2021/05/30 05:50:25;;;;;;;24.63;13.18;;;11.00;99.90;;;;;;5085932;28;20052;-65
2021/05/30 05:52:51;;;;;;;26.42;13.75;;;11.10;99.90;;;;;;5060967;28;20682;-64
2021/05/30 05:55:19;;;;;;;25.42;14.38;;;11.20;99.90;;;;;;5085761;28;20071;-65
2021/05/30 05:57:50;;;;;;;24.73;14.38;;;11.30;99.90;;;;;;5085821;28;20044;-65
2021/05/30 06:00:21;;;;;;;26.10;15.02;;;11.40;99.90;;;;;;5085552;28;20090;-65
2021/05/30 06:02:50;;;;;;;22.15;13.50;;;11.50;99.90;;;;;;5054968;28;20126;-65
2021/05/30 06:05:18;;;;;;;21.90;14.50;;;11.60;99.90;;;;;;5085631;28;20055;-64
2021/05/30 06:07:48;;;;;;;26.45;15.27;;;11.60;99.90;;;;;;5092089;28;20040;-65
2021/05/30 06:10:16;;;;;;;23.45;14.65;;;11.60;99.90;;;;;;5090851;28;20407;-65
2021/05/30 06:12:42;;;;;;;24.33;13.88;;;11.60;99.90;;;;;;5085632;28;20041;-65
2021/05/30 06:15:11;;;;;;;22.45;15.05;;;11.50;99.90;;;;;;5053782;28;20088;-65
2021/05/30 06:17:37;;;;;;;21.50;13.95;;;11.40;99.90;;;;;;5078407;28;20064;-64
2021/05/30 06:20:04;;;;;;;22.63;14.93;;;11.40;99.90;;;;;;5080506;28;20508;-64
2021/05/30 06:22:31;;;;;;;22.80;15.40;;;11.40;99.90;;;;;;5085941;28;20068;-63
2021/05/30 06:24:57;;;;;;;25.15;15.57;;;11.30;99.90;;;;;;5083115;28;20456;-63
2021/05/30 06:27:23;;;;;;;22.02;15.38;;;11.40;99.90;;;;;;5084919;28;20045;-64
2021/05/30 06:29:49;;;;;;;25.27;14.50;;;11.30;99.90;;;;;;5083183;28;20075;-64
2021/05/30 06:32:15;;;;;;;26.13;15.98;;;11.30;99.90;;;;;;5071092;28;20037;-63
2021/05/30 06:34:41;;;;;;;24.00;15.18;;;11.30;99.90;;;;;;5066492;28;20398;-63
2021/05/30 06:37:07;;;;;;;26.05;16.50;;;11.30;99.90;;;;;;5066917;28;20060;-63
2021/05/30 06:39:34;;;;;;;26.48;16.33;;;11.40;99.90;;;;;;5050707;28;20066;-63
2021/05/30 06:42:00;;;;;;;23.98;15.50;;;11.40;99.90;;;;;;5078468;28;20045;-63
2021/05/30 06:44:26;;;;;;;28.13;17.52;;;11.50;99.90;;;;;;5084399;28;20066;-63
2021/05/30 06:46:51;;;;;;;23.60;16.55;;;11.50;99.90;;;;;;5077950;28;20045;-63
2021/05/30 06:49:17;;;;;;;25.13;16.02;;;11.60;99.90;;;;;;5084320;28;20134;-63
2021/05/30 06:51:43;;;;;;;27.05;15.75;;;11.60;99.90;;;;;;5084298;28;20044;-64
2021/05/30 06:54:09;;;;;;;26.13;16.15;;;11.50;99.90;;;;;;5083733;28;20045;-64
2021/05/30 06:56:37;;;;;;;25.08;15.75;;;11.50;99.90;;;;;;5084546;28;20074;-63
2021/05/30 06:59:03;;;;;;;24.77;15.80;;;11.50;99.90;;;;;;5067285;28;20081;-64
2021/05/30 07:01:29;;;;;;;25.83;16.05;;;11.50;99.90;;;;;;5084554;28;20045;-63
2021/05/30 07:03:55;;;;;;;24.40;15.68;;;11.60;99.90;;;;;;5083914;28;20044;-63
2021/05/30 07:06:22;;;;;;;26.60;16.15;;;11.60;99.90;;;;;;5083682;28;20082;-64
2021/05/30 07:09:03;;;;;;;26.65;15.52;;;11.70;99.90;;;;;;5081244;28;20135;-63
2021/05/30 07:11:29;;;;;;;24.02;15.10;;;11.70;99.90;;;;;;5084581;28;20075;-63
2021/05/30 07:13:56;;;;;;;24.63;15.10;;;11.70;99.90;;;;;;5084861;28;20037;-64
2021/05/30 07:16:22;;;;;;;20.77;14.00;;;11.80;99.90;;;;;;5084313;28;20074;-64
2021/05/30 07:18:47;;;;;;;28.73;16.73;;;11.80;99.90;;;;;;5075348;28;20048;-63
2021/05/30 07:21:13;;;;;;;27.33;17.65;;;11.80;99.90;;;;;;5084361;28;20037;-63
2021/05/30 07:23:40;;;;;;;26.23;16.25;;;11.80;99.90;;;;;;5078170;28;20067;-64
2021/05/30 07:26:05;;;;;;;25.98;17.60;;;12.00;99.90;;;;;;5082706;28;20173;-64
2021/05/30 07:28:32;;;;;;;27.55;17.45;;;12.00;99.90;;;;;;5083684;28;20068;-64
2021/05/30 07:30:59;;;;;;;30.20;18.02;;;12.10;99.90;;;;;;5065642;28;20108;-63
2021/05/30 07:33:26;;;;;;;26.17;16.23;;;12.20;99.90;;;;;;5067338;28;20045;-65
2021/05/30 07:35:52;;;;;;;24.92;17.05;;;12.20;99.90;;;;;;5081737;28;20416;-66
2021/05/30 07:38:20;;;;;;;22.27;16.92;;;12.30;99.90;;;;;;5082642;28;20041;-64
2021/05/30 07:40:46;;;;;;;26.67;16.02;;;12.40;99.90;;;;;;5083920;28;20059;-64
2021/05/30 07:43:12;;;;;;;22.60;16.15;;;12.40;99.90;;;;;;5084674;28;20037;-63
2021/05/30 07:45:38;;;;;;;23.65;15.88;;;12.50;99.90;;;;;;5074357;28;20041;-64
2021/05/30 07:48:05;;;;;;;25.45;16.55;;;12.50;99.90;;;;;;5081855;28;20060;-63
2021/05/30 07:50:31;;;;;;;22.25;14.90;;;12.60;99.90;;;;;;5082460;28;20047;-62
2021/05/30 07:52:59;;;;;;;25.90;15.95;;;12.70;99.90;;;;;;5082001;28;20044;-62
2021/05/30 07:55:34;;;;;;;26.35;16.65;;;12.70;99.90;;;;;;5084494;28;20076;-63
2021/05/30 07:58:01;;;;;;;22.15;16.77;;;12.80;99.90;;;;;;5084144;28;20041;-65
2021/05/30 08:00:26;;;;;;;20.17;15.77;;;13.00;99.90;;;;;;5083588;28;20521;-65
2021/05/30 08:02:52;;;;;;;24.65;17.10;;;13.10;99.90;;;;;;5065781;28;20531;-65
2021/05/30 08:05:20;;;;;;;21.90;14.93;;;13.10;99.90;;;;;;5083808;28;20045;-65
2021/05/30 08:07:48;;;;;;;22.98;16.70;;;13.10;99.90;;;;;;5090330;28;20044;-65
2021/05/30 08:10:15;;;;;;;23.10;15.70;;;13.10;99.90;;;;;;5087089;28;20055;-64
2021/05/30 08:12:42;;;;;;;24.02;17.13;;;13.20;99.90;;;;;;5083997;28;20048;-65
2021/05/30 08:15:09;;;;;;;23.58;16.00;;;13.20;99.90;;;;;;5083161;28;20059;-65
2021/05/30 08:17:36;;;;;;;22.65;16.63;;;13.30;99.90;;;;;;5080302;28;20132;-64
2021/05/30 08:20:18;;;;;;;21.00;15.40;;;13.30;99.90;;;;;;5088193;28;20104;-65
2021/05/30 08:22:45;;;;;;;22.38;15.45;;;13.30;99.90;;;;;;5087555;28;20049;-64
2021/05/30 08:25:12;;;;;;;23.40;16.10;;;13.30;99.90;;;;;;5076459;28;20460;-64
2021/05/30 08:27:38;;;;;;;25.98;16.67;;;13.40;99.90;;;;;;5087444;28;20378;-64
2021/05/30 08:30:06;;;;;;;22.40;16.50;;;13.50;99.90;;;;;;5085581;28;20044;-64
2021/05/30 08:32:32;;;;;;;21.13;15.98;;;13.50;99.90;;;;;;5086845;28;20048;-64
2021/05/30 08:34:58;;;;;;;23.30;15.15;;;13.50;99.90;;;;;;5087965;28;20045;-65
2021/05/30 08:37:24;;;;;;;23.20;15.27;;;13.60;99.90;;;;;;5074935;28;20386;-66
2021/05/30 08:39:51;;;;;;;19.75;13.77;;;13.60;99.90;;;;;;5087377;28;20070;-65
2021/05/30 08:42:21;;;;;;;23.55;16.02;;;13.70;99.90;;;;;;5086783;28;20041;-65
2021/05/30 08:44:52;;;;;;;24.35;15.68;;;13.70;99.90;;;;;;5087818;28;20098;-65
2021/05/30 08:47:22;;;;;;;23.70;15.45;;;13.80;99.90;;;;;;5087124;28;20075;-65
2021/05/30 08:49:49;;;;;;;19.98;15.43;;;13.90;99.90;;;;;;5087228;28;20051;-64
2021/05/30 08:52:16;;;;;;;20.33;15.60;;;13.90;99.90;;;;;;5084437;28;20083;-65
2021/05/30 08:54:42;;;;;;;19.08;16.05;;;14.00;99.90;;;;;;5077103;28;20107;-64
2021/05/30 08:57:08;;;;;;;22.27;16.23;;;14.20;99.90;;;;;;5087914;28;20045;-65
2021/05/30 08:59:36;;;;;;;21.85;15.65;;;14.20;99.90;;;;;;5069795;28;20485;-65
2021/05/30 09:02:11;;;;;;;25.30;16.80;;;14.20;99.90;;;;;;5084906;28;20114;-65
2021/05/30 09:04:38;;;;;;;23.65;16.45;;;14.30;99.90;;;;;;5076689;28;20051;-65
2021/05/30 09:07:04;;;;;;;25.90;18.08;;;14.30;99.90;;;;;;5085489;28;20053;-64
2021/05/30 09:09:47;;;;;;;27.85;16.88;;;14.40;99.90;;;;;;5097472;28;20048;-64
2021/05/30 09:12:34;;;;;;;22.88;15.20;;;14.50;99.90;;;;;;5086351;28;20056;-64
2021/05/30 09:15:03;;;;;;;26.08;16.85;;;14.50;99.90;;;;;;5086636;28;20053;-64
2021/05/30 09:17:29;;;;;;;26.17;19.10;;;14.60;99.90;;;;;;5066732;28;20064;-65
2021/05/30 09:19:59;;;;;;;22.77;16.13;;;14.70;99.90;;;;;;5080039;28;20078;-65
2021/05/30 09:22:35;;;;;;;24.38;16.85;;;14.70;99.90;;;;;;5055994;28;20488;-65
2021/05/30 09:25:14;;;;;;;24.02;16.83;;;14.70;99.90;;;;;;5086370;28;20044;-64
2021/05/30 09:27:49;;;;;;;25.38;16.98;;;14.80;99.90;;;;;;5085503;28;20045;-64
2021/05/30 09:30:34;;;;;;;19.65;14.93;;;15.00;99.90;;;;;;5086645;28;20045;-64
2021/05/30 09:33:18;;;;;;;22.30;16.35;;;15.20;99.90;;;;;;5086968;28;20040;-64
2021/05/30 09:35:44;;;;;;;24.02;15.38;;;15.20;99.90;;;;;;5086551;28;20051;-64
2021/05/30 09:38:20;;;;;;;23.90;16.85;;;15.20;99.90;;;;;;5086005;28;20055;-64
2021/05/30 09:40:54;;;;;;;20.65;15.10;;;15.30;99.90;;;;;;5086130;28;20068;-65
2021/05/30 09:43:24;;;;;;;23.92;16.15;;;15.40;99.90;;;;;;5086620;28;20037;-65
2021/05/30 09:46:00;;;;;;;;;;;15.50;99.90;;;;;;5076314;28;20045;-65
2021/05/30 09:48:26;;;;;;;20.10;15.10;;;15.50;99.90;;;;;;5084452;28;19939;-65
2021/05/30 09:51:05;;;;;;;22.73;14.40;;;15.60;99.90;;;;;;5085883;28;20044;-65
2021/05/30 09:53:51;;;;;;;19.77;14.60;;;15.70;99.90;;;;;;5079212;28;20040;-64
2021/05/30 09:56:33;;;;;;;21.23;15.13;;;15.70;99.90;;;;;;5085845;28;20049;-65
2021/05/30 09:59:00;;;;;;;16.85;14.82;;;15.90;99.90;;;;;;5085968;28;20041;-65
2021/05/30 10:01:27;;;;;;;22.48;16.10;;;16.00;99.90;;;;;;5085316;28;20044;-65
2021/05/30 10:03:54;;;;;;;24.02;15.02;;;16.00;99.90;;;;;;5085596;28;20119;-65
2021/05/30 10:06:20;;;;;;;19.92;14.40;;;16.10;99.90;;;;;;5072079;28;20040;-65
2021/05/30 10:08:47;;;;;;;23.73;14.13;;;16.10;99.90;;;;;;5089822;28;20052;-64
2021/05/30 10:11:17;;;;;;;22.45;16.55;;;16.20;99.90;;;;;;5081626;28;20045;-65
2021/05/30 10:13:44;;;;;;;20.02;12.90;;;16.20;99.90;;;;;;5077340;28;20040;-65
2021/05/30 10:16:10;;;;;;;16.23;11.77;;;16.30;99.90;;;;;;5086055;28;20569;-64
2021/05/30 10:18:44;;;;;;;19.90;13.48;;;16.30;99.90;;;;;;5081104;28;20516;-64
2021/05/30 10:21:15;;;;;;;20.17;13.68;;;16.40;99.90;;;;;;5072267;28;20036;-65
2021/05/30 10:23:41;;;;;;;19.10;13.32;;;16.30;99.90;;;;;;5078260;28;20045;-65
2021/05/30 10:26:13;;;;;;;20.02;12.55;;;16.50;99.90;;;;;;5084210;28;20056;-65
2021/05/30 10:28:54;;;;;;;18.08;12.23;;;16.40;99.90;;;;;;5085271;28;20051;-64
2021/05/30 10:31:24;;;;;;;21.30;12.32;;;16.50;99.90;;;;;;5073598;28;20052;-64
2021/05/30 10:34:19;;;;;;;22.08;12.38;;;16.50;99.90;;;;;;5084711;28;20551;-64
2021/05/30 10:37:04;;;;;;;16.25;10.95;;;16.70;99.90;;;;;;5085726;28;20049;-64
2021/05/30 10:39:30;;;;;;;14.27;11.25;;;17.00;99.90;;;;;;5072549;28;20056;-64
2021/05/30 10:42:23;;;;;;;21.38;11.73;;;17.00;99.90;;;;;;5084938;28;20100;-64
2021/05/30 10:44:54;;;;;;;15.52;10.60;;;17.00;99.90;;;;;;5084866;28;20044;-64
2021/05/30 10:47:40;;;;;;;19.40;10.20;;;17.20;99.90;;;;;;5084627;28;20040;-64
2021/05/30 10:50:17;;;;;;;15.52;11.13;;;17.30;99.90;;;;;;5085894;28;20052;-64
2021/05/30 10:52:46;;;;;;;13.93;9.50;;;17.30;99.90;;;;;;5067251;28;20041;-65
2021/05/30 10:55:19;;;;;;;14.93;9.40;;;17.30;99.90;;;;;;5079467;28;20055;-65
2021/05/30 10:57:49;;;;;;;14.02;9.65;;;17.40;99.90;;;;;;5085800;28;20041;-64
2021/05/30 11:00:21;;;;;;;16.77;9.50;;;17.40;99.90;;;;;;5084742;28;20048;-64
2021/05/30 11:03:09;;;;;;;15.52;9.75;;;17.50;99.90;;;;;;5085198;28;20044;-65
2021/05/30 11:05:43;;;;;;;16.25;10.50;;;17.60;99.90;;;;;;5085584;28;20096;-65
2021/05/30 11:08:31;;;;;;;16.95;10.27;;;17.70;99.90;;;;;;5092737;28;20234;-64
2021/05/30 11:11:17;;;;;;;13.13;8.75;;;17.70;99.90;;;;;;5066724;28;20049;-64
2021/05/30 11:13:58;;;;;;;13.20;10.10;;;17.80;99.90;;;;;;5081257;28;20050;-65
2021/05/30 11:16:28;;;;;;;14.77;8.77;;;17.80;99.90;;;;;;5084539;28;20059;-65
2021/05/30 11:19:02;;;;;;;15.52;9.73;;;17.80;99.90;;;;;;5071371;28;20505;-64
2021/05/30 11:21:34;;;;;;;15.75;9.40;;;17.80;99.90;;;;;;5084689;28;20049;-64
2021/05/30 11:24:08;;;;;;;15.07;10.15;;;17.90;99.90;;;;;;5074346;28;20512;-64
2021/05/30 11:26:34;;;;;;;14.02;9.25;;;17.90;99.90;;;;;;5084409;28;20032;-65
2021/05/30 11:29:01;;;;;;;15.63;9.68;;;18.00;99.90;;;;;;5084446;28;20044;-64
2021/05/30 11:31:28;;;;;;;15.40;9.30;;;18.00;99.90;;;;;;5084089;28;20048;-65
2021/05/30 11:34:02;;;;;;;15.00;9.70;;;18.00;99.90;;;;;;5085592;28;20499;-66
2021/05/30 11:36:34;;;;;;;14.25;9.80;;;18.30;99.90;;;;;;5085044;28;20048;-64
2021/05/30 11:39:09;;;;;;;13.52;9.43;;;18.30;99.90;;;;;;5085026;28;20055;-65
2021/05/30 11:41:53;;;;;;;12.80;9.73;;;18.40;99.90;;;;;;5084022;28;20092;-65
2021/05/30 11:44:21;;;;;;;17.88;9.55;;;18.40;99.90;;;;;;5084331;28;20063;-65
2021/05/30 11:46:55;;;;;;;12.77;9.38;;;18.50;99.90;;;;;;5066495;28;20114;-65
2021/05/30 11:49:32;;;;;;;10.52;8.70;;;18.60;99.90;;;;;;5084179;28;20044;-65
2021/05/30 11:52:16;;;;;;;15.75;9.30;;;18.70;99.90;;;;;;5087740;28;20049;-65
2021/05/30 11:54:42;;;;;;;12.27;8.38;;;18.80;99.90;;;;;;5086441;28;20044;-63
2021/05/30 11:57:19;;;;;;;12.70;9.32;;;18.70;99.90;;;;;;5088978;28;20040;-64
2021/05/30 11:59:57;;;;;;;13.82;9.10;;;18.80;99.90;;;;;;5087953;28;20056;-65
2021/05/30 12:02:38;;;;;;;11.82;8.63;;;18.90;99.90;;;;;;5088152;28;20055;-65
2021/05/30 12:05:07;;;;;;;11.30;8.18;;;18.90;99.90;;;;;;5076262;28;20040;-64
2021/05/30 12:07:34;;;;;;;13.27;8.50;;;19.10;99.90;;;;;;5091126;28;20062;-65
2021/05/30 12:10:02;;;;;;;11.20;8.68;;;19.10;99.90;;;;;;5070224;28;20047;-65
2021/05/30 12:12:31;;;;;;;13.27;8.43;;;19.30;99.90;;;;;;5074455;28;20071;-65
2021/05/30 12:15:02;;;;;;;11.25;7.35;;;19.30;99.90;;;;;;5069800;28;20129;-65
2021/05/30 12:17:28;;;;;;;12.15;7.85;;;19.30;99.90;;;;;;5082900;28;20037;-65
2021/05/30 12:19:54;;;;;;;10.25;7.85;;;19.60;99.90;;;;;;5087870;28;20071;-64
2021/05/30 12:22:26;;;;;;;14.50;8.70;;;19.60;99.90;;;;;;5088239;28;20071;-65
2021/05/30 12:24:52;;;;;;;11.40;8.10;;;19.60;99.90;;;;;;5078708;28;20571;-65
2021/05/30 12:27:18;;;;;;;11.80;7.82;;;19.70;99.90;;;;;;5069556;28;20049;-65
2021/05/30 12:29:48;;;;;;;11.68;7.60;;;19.80;99.90;;;;;;5088131;28;20068;-65
2021/05/30 12:32:15;;;;;;;;;;;19.90;99.90;;;;;;5088617;28;20076;-65
2021/05/30 12:34:41;;;;;;;8.52;6.18;;;19.90;99.90;;;;;;5085252;28;20003;-65
2021/05/30 12:37:06;;;;;;;11.20;6.82;;;20.00;99.90;;;;;;5067642;28;20048;-65
2021/05/30 12:39:32;;;;;;;8.60;6.65;;;20.20;99.90;;;;;;5087670;28;20051;-65
2021/05/30 12:42:08;;;;;;;8.38;6.00;;;20.10;99.90;;;;;;5087061;28;20052;-65